Time;durP1;ratioP1;P1;durP2;ratioP2;P2;SDS_P1;SDS_P2;PMS_P1;PMS_P2;Temp;Humidity;BMP_temperature;BMP_pressure;BME280_temperature;BME280_humidity;BME280_pressure;Samples;Min_cycle;Max_cycle;Signal;HPM_P1;HPM_P2
2022/08/16 00:02:23;;;;;;;7.53;3.70;;;;;;;21.45;80.94;98478.94;4915338;29;20680;-67
2022/08/16 00:04:50;;;;;;;6.60;3.70;;;;;;;21.43;80.49;98474.91;4915328;29;20720;-59
2022/08/16 00:07:16;;;;;;;6.20;3.90;;;;;;;21.37;81.11;98468.69;4915343;29;20212;-59
2022/08/16 00:09:43;;;;;;;6.00;3.97;;;;;;;21.37;81.37;98468.69;4915504;29;20229;-66
2022/08/16 00:12:10;;;;;;;7.33;3.83;;;;;;;21.35;80.86;98468.09;4914596;29;20197;-66
2022/08/16 00:14:37;;;;;;;5.80;3.80;;;;;;;21.35;80.99;98470.69;4915241;29;20223;-66
2022/08/16 00:17:05;;;;;;;5.40;3.80;;;;;;;21.17;81.90;98468.59;4915109;29;20205;-66
2022/08/16 00:19:34;;;;;;;7.10;4.23;;;;;;;21.22;81.94;98468.03;4915193;29;20249;-66
2022/08/16 00:22:01;;;;;;;5.33;3.40;;;;;;;21.19;82.13;98469.22;4914949;29;20233;-65
2022/08/16 00:24:29;;;;;;;6.07;4.00;;;;;;;21.17;81.93;98476.38;4915109;29;20592;-59
2022/08/16 00:26:57;;;;;;;5.27;3.23;;;;;;;21.21;81.68;98476.81;4914973;29;20215;-58
2022/08/16 00:29:23;;;;;;;7.53;4.10;;;;;;;21.17;81.90;98473.00;4914977;29;20221;-66
2022/08/16 00:31:52;;;;;;;6.17;3.83;;;;;;;21.13;82.18;98479.59;4914844;29;20197;-66
2022/08/16 00:34:22;;;;;;;5.43;3.63;;;;;;;21.08;82.41;98487.16;4914789;29;20206;-66
2022/08/16 00:36:49;;;;;;;6.03;3.50;;;;;;;21.02;82.63;98479.13;4914780;29;20218;-67
2022/08/16 00:39:17;;;;;;;6.77;3.97;;;;;;;20.99;82.73;98483.91;4914930;29;20596;-66
2022/08/16 00:41:47;;;;;;;6.27;3.77;;;;;;;20.97;82.86;98480.69;4914653;29;20237;-66
2022/08/16 00:44:15;;;;;;;6.97;4.17;;;;;;;20.93;82.98;98490.69;4914798;29;20207;-66
2022/08/16 00:46:48;;;;;;;5.90;3.77;;;;;;;20.94;83.24;98481.91;4914758;29;20696;-67
2022/08/16 00:49:15;;;;;;;6.37;4.00;;;;;;;20.94;83.36;98489.72;4914960;29;20386;-67
2022/08/16 00:51:44;;;;;;;6.50;3.97;;;;;;;20.93;83.29;98493.28;4914737;29;20221;-66
2022/08/16 00:54:11;;;;;;;7.10;4.07;;;;;;;20.89;83.43;98488.69;4914378;29;20659;-67
2022/08/16 00:56:40;;;;;;;6.27;3.70;;;;;;;20.90;83.26;98501.47;4914439;29;20201;-58
2022/08/16 00:59:09;;;;;;;6.03;3.97;;;;;;;20.84;84.07;98501.44;4914238;29;20205;-59
2022/08/16 01:01:36;;;;;;;6.93;4.33;;;;;;;20.78;83.99;98497.78;4914524;29;20240;-66
2022/08/16 01:04:05;;;;;;;8.07;4.40;;;;;;;20.76;84.30;98507.56;4914370;29;20217;-66
2022/08/16 01:06:32;;;;;;;5.77;4.07;;;;;;;20.77;84.11;98504.00;4914147;29;20483;-66
2022/08/16 01:09:05;;;;;;;7.60;4.40;;;;;;;20.79;84.00;98499.38;4914068;29;20220;-66
2022/08/16 01:11:33;;;;;;;6.47;4.17;;;;;;;20.79;84.48;98494.19;4914232;29;20598;-66
2022/08/16 01:14:09;;;;;;;5.83;4.00;;;;;;;20.80;84.30;98495.81;4914272;29;20205;-66
2022/08/16 01:16:36;;;;;;;6.67;4.70;;;;;;;20.74;84.97;98488.75;4914311;29;20203;-59
2022/08/16 01:19:13;;;;;;;7.53;4.40;;;;;;;20.76;84.91;98495.38;4914034;29;20590;-59
2022/08/16 01:21:47;;;;;;;6.37;4.07;;;;;;;20.74;85.79;98496.56;4913901;29;20733;-58
2022/08/16 01:24:21;;;;;;;6.30;4.47;;;;;;;20.68;85.50;98492.94;4914198;29;20213;-58
2022/08/16 01:26:50;;;;;;;5.67;3.90;;;;;;;20.69;85.60;98488.56;4914111;29;20211;-61
2022/08/16 01:29:21;;;;;;;7.27;4.30;;;;;;;20.67;85.54;98485.34;4913837;29;20213;-66
2022/08/16 01:31:48;;;;;;;8.40;4.50;;;;;;;20.64;85.69;98480.53;4914080;29;20212;-66
2022/08/16 01:34:17;;;;;;;6.50;4.50;;;;;;;20.58;86.21;98487.28;4914040;29;20681;-58
2022/08/16 01:36:44;;;;;;;7.17;4.40;;;;;;;20.59;86.00;98486.28;4913686;29;20205;-59
2022/08/16 01:39:12;;;;;;;6.27;4.37;;;;;;;20.55;86.16;98488.44;4913699;29;20208;-66
2022/08/16 01:41:41;;;;;;;9.10;4.70;;;;;;;20.54;86.10;98492.06;4913706;29;20243;-66
2022/08/16 01:44:08;;;;;;;6.23;4.50;;;;;;;20.55;86.59;98488.44;4913605;29;20211;-66
2022/08/16 01:46:38;;;;;;;7.03;4.53;;;;;;;20.54;86.62;98486.84;4913680;29;20720;-65
2022/08/16 01:49:09;;;;;;;6.40;4.07;;;;;;;20.50;86.75;98485.59;4913624;29;20225;-66
2022/08/16 01:51:37;;;;;;;7.03;4.40;;;;;;;20.43;87.11;98484.75;4913653;29;20211;-67
2022/08/16 01:54:05;;;;;;;6.17;4.17;;;;;;;20.35;87.34;98482.28;4913369;29;20208;-59
2022/08/16 01:56:32;;;;;;;7.57;4.43;;;;;;;20.37;87.28;98469.94;4913497;29;20648;-59
2022/08/16 01:59:04;;;;;;;7.03;4.40;;;;;;;20.36;87.60;98478.69;4913383;29;20208;-59
2022/08/16 02:01:32;;;;;;;6.83;4.47;;;;;;;20.37;87.22;98477.72;4913346;29;20227;-59
2022/08/16 02:03:59;;;;;;;6.93;4.40;;;;;;;20.35;87.29;98482.28;4913421;29;20203;-66
2022/08/16 02:06:27;;;;;;;8.50;4.73;;;;;;;20.30;87.88;98487.22;4913556;29;20214;-58
2022/08/16 02:08:54;;;;;;;7.47;4.27;;;;;;;20.28;87.76;98487.44;4913240;29;20670;-58
2022/08/16 02:11:22;;;;;;;7.43;4.57;;;;;;;20.28;88.07;98481.44;4913374;29;20229;-59
2022/08/16 02:13:49;;;;;;;6.60;4.13;;;;;;;20.26;88.24;98480.81;4913061;29;20633;-59
2022/08/16 02:16:18;;;;;;;8.20;4.70;;;;;;;20.22;88.57;98482.19;4913165;29;20240;-58
2022/08/16 02:18:45;;;;;;;7.13;4.53;;;;;;;20.12;89.07;98483.28;4913294;29;20609;-58
2022/08/16 02:21:13;;;;;;;6.30;4.47;;;;;;;20.07;89.42;98479.66;4912969;29;20238;-59
2022/08/16 02:23:41;;;;;;;7.07;4.37;;;;;;;20.10;89.16;98479.28;4913115;29;20204;-67
2022/08/16 02:26:08;;;;;;;6.30;4.50;;;;;;;20.05;89.41;98482.44;4913479;29;20235;-66
2022/08/16 02:28:35;;;;;;;8.20;5.10;;;;;;;20.03;89.38;98492.22;4913258;29;20206;-66
2022/08/16 02:31:07;;;;;;;9.73;5.20;;;;;;;19.99;89.62;98498.75;4912957;29;20227;-66
2022/08/16 02:33:35;;;;;;;8.33;4.67;;;;;;;20.01;89.91;98491.59;4913168;29;20217;-66
2022/08/16 02:36:03;;;;;;;7.37;4.30;;;;;;;20.03;89.30;98489.59;4916924;29;20234;-58
2022/08/16 02:38:30;;;;;;;7.27;4.60;;;;;;;20.06;89.29;98493.63;4917014;29;20201;-58
2022/08/16 02:40:57;;;;;;;8.93;4.33;;;;;;;20.02;89.56;98502.78;4916830;29;20221;-66
2022/08/16 02:43:25;;;;;;;7.80;4.37;;;;;;;19.96;90.09;98506.94;4916807;29;20234;-66
2022/08/16 02:45:52;;;;;;;7.60;4.90;;;;;;;19.96;89.93;98506.94;4916894;29;20252;-58
2022/08/16 02:48:19;;;;;;;7.53;4.77;;;;;;;19.95;89.81;98507.09;4916620;29;20205;-58
2022/08/16 02:50:48;;;;;;;7.37;5.03;;;;;;;19.92;89.88;98503.06;4916728;29;20226;-58
2022/08/16 02:53:15;;;;;;;7.63;4.73;;;;;;;19.89;90.02;98506.84;4916663;29;20218;-58
2022/08/16 02:55:42;;;;;;;6.43;4.50;;;;;;;19.90;89.96;98505.06;4916710;29;20230;-59
2022/08/16 02:58:10;;;;;;;6.40;4.43;;;;;;;19.85;90.84;98512.59;4916644;29;20212;-58
2022/08/16 03:00:37;;;;;;;6.63;4.43;;;;;;;19.85;90.14;98497.03;4916477;29;20317;-58
2022/08/16 03:03:04;;;;;;;7.77;4.90;;;;;;;19.85;90.78;98505.63;4916627;29;20237;-58
2022/08/16 03:05:31;;;;;;;9.80;5.07;;;;;;;19.85;90.49;98504.81;4916790;29;20233;-58
2022/08/16 03:08:00;;;;;;;9.17;5.07;;;;;;;19.83;90.46;98511.97;4916376;29;20201;-59
2022/08/16 03:10:27;;;;;;;6.23;4.73;;;;;;;19.80;90.67;98501.97;4916567;29;20242;-58
2022/08/16 03:12:54;;;;;;;7.27;4.40;;;;;;;19.82;90.76;98512.97;4916814;29;20213;-58
2022/08/16 03:15:20;;;;;;;7.20;4.27;;;;;;;19.83;90.87;98509.38;4916338;29;20753;-58
2022/08/16 03:17:47;;;;;;;7.20;4.60;;;;;;;19.79;91.17;98515.94;4916215;29;20201;-66
2022/08/16 03:20:16;;;;;;;7.13;4.70;;;;;;;19.79;91.16;98513.34;4916541;29;20223;-66
2022/08/16 03:22:43;;;;;;;6.67;4.60;;;;;;;19.77;91.34;98505.72;4916154;29;20726;-58
2022/08/16 03:25:14;;;;;;;10.30;4.73;;;;;;;19.75;91.04;98509.47;4916269;29;20224;-58
2022/08/16 03:27:41;;;;;;;6.67;4.37;;;;;;;19.73;91.11;98511.47;4916432;29;20216;-66
2022/08/16 03:30:12;;;;;;;8.03;4.77;;;;;;;19.72;91.61;98515.03;4916112;29;20234;-66
2022/08/16 03:32:39;;;;;;;9.77;5.10;;;;;;;19.74;91.47;98510.47;4916046;29;20257;-66
2022/08/16 03:35:07;;;;;;;7.73;5.30;;;;;;;19.74;91.66;98518.25;4915787;29;20224;-66
2022/08/16 03:37:34;;;;;;;7.70;4.50;;;;;;;19.72;91.52;98518.44;4915825;29;20205;-66
2022/08/16 03:40:01;;;;;;;7.80;4.93;;;;;;;19.75;91.52;98523.28;4916056;29;20233;-58
2022/08/16 03:42:29;;;;;;;5.93;4.10;;;;;;;19.80;91.62;98522.72;4915737;29;20238;-58
2022/08/16 03:44:56;;;;;;;7.03;4.47;;;;;;;19.84;91.22;98522.19;4915623;29;20225;-58
2022/08/16 03:47:22;;;;;;;7.03;4.27;;;;;;;19.85;91.09;98525.56;4914842;29;20202;-59
2022/08/16 03:49:50;;;;;;;7.03;4.70;;;;;;;19.84;91.23;98531.75;4915395;29;20228;-58
2022/08/16 03:52:16;;;;;;;7.17;4.43;;;;;;;19.85;91.07;98522.97;4915704;29;20206;-58
2022/08/16 03:54:43;;;;;;;8.93;4.83;;;;;;;19.87;91.16;98526.19;4915447;29;20234;-58
2022/08/16 03:57:10;;;;;;;7.77;4.70;;;;;;;19.93;90.72;98522.88;4915854;29;20215;-65
2022/08/16 03:59:38;;;;;;;8.80;5.00;;;;;;;19.96;90.79;98519.91;4915457;29;20233;-66
2022/08/16 04:02:05;;;;;;;8.50;4.77;;;;;;;19.96;90.50;98530.28;4915373;29;20242;-66
2022/08/16 04:04:34;;;;;;;6.57;4.37;;;;;;;19.93;90.72;98535.84;4915450;29;20250;-66
2022/08/16 04:07:02;;;;;;;7.93;4.53;;;;;;;19.90;90.83;98531.81;4915604;29;20211;-59
2022/08/16 04:09:29;;;;;;;6.93;4.70;;;;;;;19.94;90.52;98526.25;4915349;29;20711;-58
2022/08/16 04:11:56;;;;;;;6.43;4.40;;;;;;;19.94;89.92;98531.44;4915390;29;20683;-58
2022/08/16 04:14:23;;;;;;;6.33;4.47;;;;;;;19.94;90.01;98552.19;4915121;29;20233;-58
2022/08/16 04:16:51;;;;;;;7.67;4.87;;;;;;;19.94;90.30;98553.00;4915179;29;20207;-58
2022/08/16 04:19:18;;;;;;;8.17;4.73;;;;;;;19.99;89.58;98553.25;4915166;29;20224;-66
2022/08/16 04:21:45;;;;;;;7.73;4.67;;;;;;;20.10;89.33;98537.19;4915123;29;20207;-65
2022/08/16 04:24:12;;;;;;;8.93;5.00;;;;;;;20.16;88.64;98534.84;4914954;29;20210;-66
2022/08/16 04:26:39;;;;;;;6.67;4.53;;;;;;;20.24;88.40;98532.91;4915182;29;20201;-66
2022/08/16 04:29:06;;;;;;;8.60;4.77;;;;;;;20.33;87.92;98536.19;4914763;29;20210;-66
2022/08/16 04:31:32;;;;;;;9.03;4.97;;;;;;;20.38;88.15;98539.03;4915176;29;20230;-66
2022/08/16 04:34:01;;;;;;;6.27;4.53;;;;;;;20.51;88.08;98533.16;4914851;29;20216;-66
2022/08/16 04:36:28;;;;;;;8.33;4.80;;;;;;;20.64;87.29;98535.06;4915038;29;20207;-66
2022/08/16 04:38:55;;;;;;;7.27;4.50;;;;;;;20.72;87.07;98527.13;4914674;29;20213;-66
2022/08/16 04:41:22;;;;;;;5.83;4.27;;;;;;;20.82;86.21;98530.19;4915062;29;20628;-59
2022/08/16 04:43:50;;;;;;;6.50;4.13;;;;;;;20.90;86.42;98527.44;4914527;29;20233;-59
2022/08/16 04:46:17;;;;;;;6.77;4.43;;;;;;;21.06;85.82;98530.72;4914827;29;20270;-58
2022/08/16 04:48:44;;;;;;;7.57;4.90;;;;;;;21.18;86.04;98539.59;4914710;29;20229;-58
2022/08/16 04:51:12;;;;;;;7.83;4.93;;;;;;;21.40;84.30;98535.91;4915040;29;20225;-66
2022/08/16 04:53:39;;;;;;;8.97;4.37;;;;;;;21.51;83.94;98534.56;4914540;29;20394;-58
2022/08/16 04:56:06;;;;;;;9.27;4.60;;;;;;;21.63;82.75;98543.41;4914602;29;20228;-58
2022/08/16 04:58:33;;;;;;;6.90;4.57;;;;;;;21.78;81.68;98540.66;4914173;29;20224;-58
2022/08/16 05:01:01;;;;;;;8.40;4.90;;;;;;;22.00;80.94;98535.31;4914475;29;20824;-58
2022/08/16 05:03:28;;;;;;;7.57;4.90;;;;;;;22.13;80.69;98543.13;4914408;29;20276;-66
2022/08/16 05:05:55;;;;;;;8.10;4.50;;;;;;;22.26;79.71;98532.75;4914108;29;20743;-66
2022/08/16 05:08:24;;;;;;;7.27;4.57;;;;;;;22.43;78.68;98543.59;4914437;29;20207;-58
2022/08/16 05:10:52;;;;;;;7.57;4.50;;;;;;;22.60;78.07;98538.75;4914307;29;20235;-66
2022/08/16 05:13:18;;;;;;;7.10;4.80;;;;;;;22.71;77.61;98540.75;4914380;29;20216;-65
2022/08/16 05:15:45;;;;;;;6.93;4.50;;;;;;;22.95;78.20;98530.72;4914142;29;20227;-58
2022/08/16 05:18:13;;;;;;;8.10;4.88;;;;;;;23.12;76.30;98528.47;4914279;29;20761;-58
2022/08/16 05:20:40;;;;;;;5.80;4.40;;;;;;;23.29;75.15;98532.22;4913947;29;20285;-58
2022/08/16 05:23:07;;;;;;;6.70;4.63;;;;;;;23.43;74.38;98538.19;4913910;29;20242;-66
2022/08/16 05:25:35;;;;;;;6.88;4.20;;;;;;;23.59;73.29;98535.13;4914276;29;20674;-66
2022/08/16 05:28:02;;;;;;;6.75;4.30;;;;;;;23.75;72.01;98535.66;4914003;29;20207;-65
2022/08/16 05:30:29;;;;;;;6.60;4.38;;;;;;;23.89;72.01;98538.00;4913763;29;20718;-58
2022/08/16 05:32:56;;;;;;;7.22;4.50;;;;;;;24.09;70.25;98542.28;4914046;29;20207;-58
2022/08/16 05:35:23;;;;;;;6.55;4.32;;;;;;;24.11;70.13;98541.03;4913807;29;20242;-60
2022/08/16 05:37:50;;;;;;;9.05;4.63;;;;;;;24.06;71.97;98542.72;4913668;29;20211;-66
2022/08/16 05:40:16;;;;;;;6.35;4.20;;;;;;;24.19;71.72;98542.63;4914110;29;20313;-66
2022/08/16 05:42:45;;;;;;;7.35;4.22;;;;;;;24.33;68.76;98540.72;4913660;29;20655;-66
2022/08/16 05:45:11;;;;;;;5.28;4.05;;;;;;;24.58;70.84;98552.00;4913553;29;20718;-58
2022/08/16 05:47:39;;;;;;;5.57;4.30;;;;;;;24.91;70.74;98545.66;4913739;29;20209;-58
2022/08/16 05:50:07;;;;;;;6.53;4.30;;;;;;;25.12;68.83;98547.03;4913450;29;20220;-58
2022/08/16 05:52:34;;;;;;;6.93;4.07;;;;;;;25.33;67.53;98552.88;4913630;29;20690;-66
2022/08/16 05:55:02;;;;;;;6.45;4.50;;;;;;;25.42;66.46;98548.94;4913505;29;20224;-66
2022/08/16 05:57:29;;;;;;;6.55;4.20;;;;;;;25.63;66.44;98555.53;4913536;29;20705;-66
2022/08/16 05:59:57;;;;;;;7.18;4.60;;;;;;;25.90;67.78;98554.19;4913422;29;20232;-58
2022/08/16 06:02:28;;;;;;;6.00;4.30;;;;;;;26.12;63.67;98556.28;4913469;29;20204;-58
2022/08/16 06:04:55;;;;;;;6.60;4.32;;;;;;;26.27;63.36;98561.91;4913157;29;20721;-58
2022/08/16 06:07:22;;;;;;;5.88;4.45;;;;;;;26.40;62.18;98564.31;4913338;29;20204;-67
2022/08/16 06:09:48;;;;;;;8.80;4.95;;;;;;;26.53;62.82;98557.28;4912652;29;20228;-66
2022/08/16 06:12:17;;;;;;;7.05;4.45;;;;;;;26.78;62.42;98560.47;4913552;29;20765;-66
2022/08/16 06:14:44;;;;;;;7.00;4.32;;;;;;;26.96;60.67;98550.88;4913215;29;20220;-58
2022/08/16 06:17:15;;;;;;;6.30;3.95;;;;;;;27.13;62.50;98550.97;4913419;29;20204;-58
2022/08/16 06:19:42;;;;;;;6.55;4.72;;;;;;;27.20;61.23;98560.38;4913247;29;20224;-58
2022/08/16 06:22:09;;;;;;;5.97;4.22;;;;;;;27.32;57.71;98549.84;4913241;29;20215;-58
2022/08/16 06:24:36;;;;;;;6.82;5.18;;;;;;;27.47;57.88;98551.94;4912916;29;20243;-58
2022/08/16 06:27:03;;;;;;;5.18;4.05;;;;;;;27.45;57.74;98554.00;4913336;29;20214;-59
2022/08/16 06:29:30;;;;;;;6.05;4.20;;;;;;;27.67;57.95;98548.91;4913070;29;20228;-67
2022/08/16 06:31:57;;;;;;;6.00;4.32;;;;;;;27.59;57.04;98560.59;4913226;29;20208;-67
2022/08/16 06:34:25;;;;;;;6.38;4.50;;;;;;;27.76;56.66;98550.91;4913249;29;20232;-65
2022/08/16 06:36:52;;;;;;;6.22;4.25;;;;;;;27.89;54.87;98554.31;4913114;29;20218;-66
2022/08/16 06:39:19;;;;;;;4.65;3.75;;;;;;;28.02;54.32;98547.97;4913009;29;20216;-66
2022/08/16 06:41:46;;;;;;;5.93;4.00;;;;;;;27.82;53.93;98554.47;4912948;29;20216;-67
2022/08/16 06:44:13;;;;;;;6.05;4.13;;;;;;;28.13;56.44;98562.84;4912807;29;20228;-66
2022/08/16 06:46:39;;;;;;;4.55;3.60;;;;;;;28.30;54.77;98568.13;4913217;29;20244;-58
2022/08/16 06:49:09;;;;;;;5.50;3.75;;;;;;;28.65;54.36;98568.72;4912647;29;20208;-58
2022/08/16 06:51:38;;;;;;;4.88;4.15;;;;;;;28.74;51.64;98566.47;4913006;29;20776;-58
2022/08/16 06:54:06;;;;;;;6.70;4.20;;;;;;;28.89;54.42;98565.91;4912619;29;20211;-58
2022/08/16 06:56:33;;;;;;;6.00;4.60;;;;;;;28.93;55.29;98564.34;4913079;29;20212;-59
2022/08/16 06:59:00;;;;;;;5.47;4.03;;;;;;;29.03;51.24;98564.53;4912918;29;20666;-58
2022/08/16 07:01:28;;;;;;;6.88;4.22;;;;;;;29.09;50.67;98568.81;4912840;29;20200;-58
2022/08/16 07:03:54;;;;;;;5.80;4.22;;;;;;;29.27;51.07;98577.47;4912679;29;20235;-58
2022/08/16 07:06:22;;;;;;;6.07;4.38;;;;;;;29.46;52.45;98565.56;4912624;29;20228;-58
2022/08/16 07:08:50;;;;;;;5.57;4.10;;;;;;;29.53;50.62;98574.06;4912493;29;20212;-58
2022/08/16 07:11:19;;;;;;;6.07;4.18;;;;;;;29.68;51.55;98568.22;4912630;29;20228;-67
2022/08/16 07:13:47;;;;;;;6.13;3.70;;;;;;;29.87;49.54;98568.63;4912924;29;20212;-66
2022/08/16 07:16:15;;;;;;;5.53;3.83;;;;;;;30.18;49.27;98566.28;4912912;29;20240;-65
2022/08/16 07:18:43;;;;;;;5.70;3.80;;;;;;;30.29;48.34;98560.09;4912670;29;20211;-66
2022/08/16 07:21:11;;;;;;;6.05;3.88;;;;;;;30.54;47.90;98572.63;4914596;29;20714;-57
2022/08/16 07:23:38;;;;;;;6.68;4.03;;;;;;;30.76;47.28;98583.09;4916450;29;20236;-58
2022/08/16 07:26:11;;;;;;;5.60;3.83;;;;;;;31.03;47.95;98574.28;4916325;29;20721;-58
2022/08/16 07:28:38;;;;;;;6.03;4.22;;;;;;;31.20;50.51;98574.88;4916350;29;20196;-60
2022/08/16 07:31:05;;;;;;;4.75;4.00;;;;;;;31.31;48.26;98576.53;4916076;29;20661;-66
2022/08/16 07:33:33;;;;;;;4.13;3.70;;;;;;;31.28;45.98;98582.31;4915837;29;20713;-66
2022/08/16 07:36:01;;;;;;;6.05;4.25;;;;;;;31.22;47.68;98578.06;4916081;29;20315;-67
2022/08/16 07:38:28;;;;;;;5.20;3.97;;;;;;;31.01;46.29;98586.94;4915976;29;20712;-66
2022/08/16 07:40:55;;;;;;;4.88;3.88;;;;;;;30.71;46.27;98590.97;4915818;29;20325;-66
2022/08/16 07:43:24;;;;;;;4.65;4.00;;;;;;;30.67;47.83;98584.63;4915885;29;20239;-67
2022/08/16 07:45:51;;;;;;;6.47;3.92;;;;;;;30.66;47.67;98583.00;4915649;29;20235;-66
2022/08/16 07:48:19;;;;;;;4.75;3.70;;;;;;;30.54;46.56;98577.91;4915799;29;20205;-67
2022/08/16 07:50:46;;;;;;;5.75;4.45;;;;;;;30.53;48.05;98576.34;4915683;29;20224;-66
2022/08/16 07:53:13;;;;;;;4.55;3.65;;;;;;;30.74;45.89;98579.91;4915772;29;20211;-66
2022/08/16 07:55:40;;;;;;;4.75;3.38;;;;;;;31.09;46.87;98574.03;4916005;29;20228;-58
2022/08/16 07:58:07;;;;;;;5.05;3.63;;;;;;;31.15;46.82;98579.34;4915537;29;20200;-66
2022/08/16 08:00:36;;;;;;;4.20;3.58;;;;;;;31.33;43.98;98573.63;4915643;29;20224;-67
2022/08/16 08:03:04;;;;;;;3.75;3.17;;;;;;;31.15;44.27;98582.78;4915495;29;20200;-66
2022/08/16 08:05:31;;;;;;;4.75;4.00;;;;;;;31.02;45.24;98577.97;4915420;29;20236;-66
2022/08/16 08:07:58;;;;;;;5.75;3.83;;;;;;;31.32;44.06;98572.03;4915284;29;20208;-67
2022/08/16 08:10:25;;;;;;;4.85;4.00;;;;;;;31.60;45.78;98584.03;4915571;29;20227;-58
2022/08/16 08:12:56;;;;;;;5.05;3.92;;;;;;;31.92;45.03;98567.22;4915548;29;20487;-58
2022/08/16 08:15:24;;;;;;;5.22;3.90;;;;;;;32.20;43.29;98566.72;4915163;29;20283;-58
2022/08/16 08:17:53;;;;;;;4.65;3.55;;;;;;;32.21;41.02;98562.19;4915232;29;20208;-59
2022/08/16 08:20:25;;;;;;;4.93;4.00;;;;;;;32.04;42.85;98570.41;4915407;29;20781;-58
2022/08/16 08:22:52;;;;;;;4.38;3.50;;;;;;;32.36;42.47;98564.03;4915351;29;20208;-59
2022/08/16 08:25:20;;;;;;;5.57;4.00;;;;;;;32.53;41.11;98569.88;4914942;29;20228;-66
2022/08/16 08:27:47;;;;;;;7.72;4.10;;;;;;;32.61;40.63;98572.00;4915218;29;20200;-67
2022/08/16 08:30:14;;;;;;;5.63;3.78;;;;;;;32.76;39.88;98573.81;4915145;29;20835;-66
2022/08/16 08:32:42;;;;;;;6.03;4.22;;;;;;;32.82;41.56;98571.94;4914327;29;20204;-59
2022/08/16 08:35:11;;;;;;;4.90;3.78;;;;;;;32.87;39.72;98563.97;4914843;29;20598;-59
2022/08/16 08:37:38;;;;;;;5.97;3.97;;;;;;;33.06;41.70;98572.16;4915124;29;20200;-59
2022/08/16 08:40:08;;;;;;;4.72;3.75;;;;;;;33.24;40.15;98573.41;4915110;29;20246;-59
2022/08/16 08:42:35;;;;;;;4.75;3.97;;;;;;;33.49;41.43;98570.63;4914738;29;20216;-59
2022/08/16 08:45:02;;;;;;;4.95;3.75;;;;;;;33.72;40.51;98576.38;4914823;29;20246;-59
2022/08/16 08:47:30;;;;;;;5.38;4.18;;;;;;;33.63;38.58;98570.84;4914951;29;20236;-59
2022/08/16 08:49:57;;;;;;;4.93;3.90;;;;;;;33.81;40.22;98572.06;4914661;29;20228;-68
2022/08/16 08:52:26;;;;;;;5.72;4.35;;;;;;;34.15;39.58;98560.69;4914925;29;20205;-68
2022/08/16 08:54:53;;;;;;;4.72;3.85;;;;;;;34.16;37.27;98578.22;4914338;29;20781;-68
2022/08/16 08:57:20;;;;;;;6.50;4.25;;;;;;;34.03;37.01;98569.81;4914508;29;20212;-67
2022/08/16 08:59:47;;;;;;;6.00;3.80;;;;;;;34.12;37.73;98566.53;4914542;29;20232;-67
2022/08/16 09:02:15;;;;;;;5.20;4.10;;;;;;;34.31;36.50;98575.41;4914436;29;20204;-67
2022/08/16 09:04:42;;;;;;;5.20;3.75;;;;;;;34.54;36.91;98568.56;4914370;29;20311;-67
2022/08/16 09:07:09;;;;;;;4.68;3.67;;;;;;;34.55;36.50;98564.06;4914430;29;20601;-59
2022/08/16 09:09:38;;;;;;;4.95;3.80;;;;;;;34.73;39.66;98559.91;4914029;29;20260;-59
2022/08/16 09:12:06;;;;;;;6.07;3.90;;;;;;;35.03;35.08;98561.44;4914296;29;20591;-59
2022/08/16 09:14:33;;;;;;;4.43;3.80;;;;;;;34.91;36.92;98557.31;4914402;29;20231;-59
2022/08/16 09:17:00;;;;;;;4.07;3.40;;;;;;;35.33;36.59;98563.72;4914731;29;20701;-58
2022/08/16 09:19:27;;;;;;;6.10;4.18;;;;;;;35.23;34.21;98566.53;4914274;29;20220;-59
2022/08/16 09:21:54;;;;;;;5.78;4.15;;;;;;;35.51;36.74;98564.03;4914050;29;20197;-59
2022/08/16 09:24:21;;;;;;;4.10;3.45;;;;;;;35.78;34.98;98564.19;4914201;29;20239;-59
2022/08/16 09:26:49;;;;;;;4.00;3.58;;;;;;;35.50;34.25;98563.25;4914111;29;20517;-59
2022/08/16 09:29:16;;;;;;;4.95;3.70;;;;;;;35.72;37.67;98565.34;4914023;29;20219;-59
2022/08/16 09:31:43;;;;;;;4.68;3.72;;;;;;;35.63;33.81;98559.09;4914099;29;20204;-59
2022/08/16 09:34:10;;;;;;;5.80;3.60;;;;;;;35.97;34.28;98558.84;4913677;29;20249;-59
2022/08/16 09:36:36;;;;;;;4.22;3.60;;;;;;;35.95;34.95;98552.22;4913863;29;20204;-59
2022/08/16 09:39:04;;;;;;;4.63;3.65;;;;;;;35.99;34.93;98558.56;4913587;29;20592;-59
2022/08/16 09:41:31;;;;;;;3.90;3.40;;;;;;;36.19;35.67;98560.91;4913711;29;20208;-59
2022/08/16 09:44:02;;;;;;;4.80;3.50;;;;;;;36.19;33.75;98547.59;4913685;29;20760;-59
2022/08/16 09:46:29;;;;;;;6.15;3.70;;;;;;;36.20;33.31;98551.06;4914041;29;20200;-60
2022/08/16 09:48:57;;;;;;;4.18;3.42;;;;;;;36.36;35.86;98548.91;4913666;29;20219;-59
2022/08/16 09:51:25;;;;;;;3.97;3.30;;;;;;;36.49;33.91;98550.81;4913600;29;20255;-59
2022/08/16 09:53:51;;;;;;;3.70;3.08;;;;;;;36.19;32.29;98552.16;4913325;29;20293;-59
2022/08/16 09:56:25;;;;;;;4.50;3.40;;;;;;;36.47;34.16;98558.28;4913561;29;20255;-59
2022/08/16 09:58:52;;;;;;;4.10;3.25;;;;;;;36.78;32.17;98547.09;4913679;29;20575;-59
2022/08/16 10:01:21;;;;;;;3.53;2.85;;;;;;;36.62;30.66;98547.38;4913330;29;20224;-59
2022/08/16 10:03:48;;;;;;;4.18;3.05;;;;;;;36.74;32.28;98551.44;4913332;29;20247;-59
2022/08/16 10:06:14;;;;;;;4.55;3.53;;;;;;;36.66;30.79;98559.03;4913662;29;20243;-59
2022/08/16 10:08:41;;;;;;;3.38;2.75;;;;;;;36.83;31.07;98552.31;4913353;29;20690;-59
2022/08/16 10:13:52;;;;;;;4.50;2.88;;;;;;;36.47;29.86;98552.97;4913167;29;20211;-59
2022/08/16 10:16:20;;;;;;;3.25;2.75;;;;;;;36.57;30.61;98555.47;4913265;29;20224;-59
2022/08/16 10:18:47;;;;;;;3.83;3.10;;;;;;;36.67;30.03;98560.59;4913495;29;20615;-68
2022/08/16 10:21:14;;;;;;;3.20;2.90;;;;;;;36.83;31.99;98549.66;4913154;29;20231;-68
2022/08/16 10:23:41;;;;;;;3.38;2.90;;;;;;;36.70;31.42;98557.34;4913283;29;20639;-67
2022/08/16 10:26:08;;;;;;;3.70;3.38;;;;;;;36.65;29.97;98560.13;4913077;29;20227;-59
2022/08/16 10:28:35;;;;;;;4.30;3.60;;;;;;;36.60;30.48;98556.78;4913509;29;20212;-59
2022/08/16 10:31:03;;;;;;;4.90;3.40;;;;;;;36.81;29.81;98555.28;4913415;29;20227;-59
2022/08/16 10:33:33;;;;;;;4.35;3.40;;;;;;;37.02;29.90;98547.69;4913020;29;20227;-59
2022/08/16 10:36:01;;;;;;;4.22;3.38;;;;;;;36.76;28.31;98557.25;4913408;29;20659;-59
2022/08/16 10:38:28;;;;;;;3.65;3.10;;;;;;;36.73;29.35;98555.97;4913118;29;20599;-60
2022/08/16 10:40:55;;;;;;;3.90;3.20;;;;;;;36.98;29.53;98556.56;4913115;29;20644;-59
2022/08/16 10:43:22;;;;;;;5.15;3.67;;;;;;;37.14;29.23;98555.97;4913183;29;20207;-59
2022/08/16 10:45:50;;;;;;;4.40;3.05;;;;;;;36.87;29.26;98553.31;4913260;29;20295;-59
2022/08/16 10:48:18;;;;;;;4.82;3.47;;;;;;;36.86;30.06;98549.06;4913083;29;20291;-59
2022/08/16 10:50:46;;;;;;;4.22;3.47;;;;;;;36.94;28.28;98557.16;4913227;29;20239;-59
2022/08/16 10:53:13;;;;;;;3.88;3.20;;;;;;;37.43;30.43;98546.81;4913380;29;20208;-60
2022/08/16 10:55:42;;;;;;;3.60;3.17;;;;;;;37.31;30.27;98543.91;4914223;29;20227;-59
2022/08/16 10:58:14;;;;;;;3.50;3.20;;;;;;;37.11;28.92;98553.91;4916767;29;20215;-59
2022/08/16 11:00:42;;;;;;;3.15;2.85;;;;;;;37.21;30.46;98544.09;4916776;29;20223;-59
2022/08/16 11:03:09;;;;;;;4.45;3.45;;;;;;;37.28;28.20;98549.84;4916787;29;20606;-59
2022/08/16 11:05:42;;;;;;;3.60;3.03;;;;;;;37.21;29.23;98549.44;4916175;29;20246;-59
2022/08/16 11:08:11;;;;;;;3.85;3.15;;;;;;;37.51;29.48;98532.81;4916690;29;20768;-59
2022/08/16 11:10:42;;;;;;;3.28;2.80;;;;;;;37.28;28.67;98533.84;4916654;29;20280;-59
2022/08/16 11:13:09;;;;;;;4.15;3.20;;;;;;;37.22;29.31;98535.03;4916438;29;20406;-59
2022/08/16 11:15:37;;;;;;;3.88;3.30;;;;;;;37.01;27.44;98535.47;4916627;29;20630;-59
2022/08/16 11:18:06;;;;;;;4.35;3.60;;;;;;;36.79;27.19;98538.00;4916313;29;20211;-59
2022/08/16 11:20:33;;;;;;;3.90;3.22;;;;;;;36.78;29.53;98525.78;4916420;29;20220;-59
2022/08/16 11:23:00;;;;;;;3.58;3.03;;;;;;;36.79;28.90;98527.34;4916257;29;20208;-69
2022/08/16 11:25:30;;;;;;;5.28;3.33;;;;;;;36.91;29.14;98524.97;4916089;29;20243;-68
2022/08/16 11:27:58;;;;;;;4.35;3.50;;;;;;;36.98;31.50;98524.59;4916275;29;20212;-67
2022/08/16 11:30:26;;;;;;;3.50;3.08;;;;;;;36.93;28.38;98515.59;4916186;29;20227;-68
2022/08/16 11:32:53;;;;;;;3.65;3.22;;;;;;;36.88;29.93;98514.91;4916011;29;20420;-60
2022/08/16 11:35:23;;;;;;;4.25;3.55;;;;;;;36.69;27.94;98512.38;4916103;29;20624;-68
2022/08/16 11:37:53;;;;;;;4.10;3.03;;;;;;;36.71;28.66;98510.19;4916150;29;20212;-68
2022/08/16 11:40:23;;;;;;;4.03;3.50;;;;;;;36.59;29.28;98502.69;4916131;29;20639;-59